Rio Vista, CA

5:47 PM PDT on August 04, 2015 (GMT -0700)
AIRNow | | Change Station
CLOSE
Current Station
Personal Weather Station
Location: Rio Vista, CA
Elevation: 36 ft
Nearby Weather Stations

Elev 36 ft 38.19 °N, 121.71 °W | Updated 35 days ago

Clear
Clear
73 °F
Feels Like 73 °F
N
13
Wind Variable Wind from SW
Gusts 19 mph

Today
High -- | Low -- °F
--% Chance of Precip.
Yesterday
High -- | Low -- °F
Precip. -- in
6:11 AM 8:13 PM
Waning Gibbous, 73% visible
Pressure 29.95 in
Visibility 10.0 miles
Clouds Few 16000 ft
Dew Point 52 °F
Humidity 47%
Rainfall in
Snow Depth Not available.
UV 4 out of 12
Pollen 6.10 out of 12
Air Quality Not available.
Flu Activity Not available.
METAR KSUU 042358Z AUTO 23016G24KT 10SM FEW160 23/12 A2993 RMK AO2 PK WND 22027/06 SLP142 T02340122 10256 20214 58001 PWINO PNO $

More Conditions Fewer Conditions

Pressure 29.95 in
Visibility 10.0 miles
Clouds Few 16000 ft
Dew Point 52 °F
Humidity 47%
Rainfall in
Snow Depth Not available.
UV 4 out of 12
Pollen 6.10 out of 12
Air Quality Not available.
Flu Activity Not available.
METAR KSUU 042358Z AUTO 23016G24KT 10SM FEW160 23/12 A2993 RMK AO2 PK WND 22027/06 SLP142 T02340122 10256 20214 58001 PWINO PNO $

More Conditions Fewer Conditions

10-Day Weather Forecast

×

Almanac

Astronomy

Aug. 04, 2015 Rise Set
Actual Time
Civil Twilight
Nautical Twilight
Astronomical Twilight
Moon
Length of Visible Light
Length of Day
Tomorrow will be .
, % of the Moon is Illuminated

Today's Extremes

State Highs State Lows

Community

WunderPhotos

Upload Photos

1,844,033 photos uploaded!

WunderBlogs® & News

Nearby

Air Quality

  Air Quality AQ Index Pollutant
Not available.

Snow Depth

Station Depth Elevation

Earthquake Activity

City Distance Mag. Time & Date
Minimum magnitude displayed is 2.5.

Coastal Water Temperatures

Place Temperature

Stations

Nearby Weather Stations

Station Location Temp. Windchill Dew Point Humidity Wind Precip. Elev Updated Type